createdAt,value
2016-12-27T11:44:29.989Z,1020.89
2016-12-27T11:45:10.678Z,1020.85
2016-12-27T11:45:51.316Z,1020.87
2016-12-27T11:46:31.946Z,1020.87
2016-12-27T11:47:12.651Z,1020.85
2016-12-27T11:47:53.315Z,1020.79
2016-12-27T11:48:33.938Z,1020.79
2016-12-27T11:49:14.578Z,1020.74
2016-12-27T11:49:55.215Z,1020.73
2016-12-27T11:50:35.837Z,1020.74
2016-12-27T11:51:16.499Z,1020.77
2016-12-27T11:51:57.207Z,1020.74
2016-12-27T11:52:37.917Z,1020.7
2016-12-27T11:53:18.538Z,1020.72
2016-12-27T11:53:59.174Z,1020.73
2016-12-27T11:54:39.818Z,1020.7
2016-12-27T11:55:20.456Z,1020.68
2016-12-27T11:56:01.159Z,1020.68
2016-12-27T11:56:41.787Z,1020.65
2016-12-27T11:57:22.414Z,1020.64
2016-12-27T11:58:03.045Z,1020.61
2016-12-27T11:58:43.682Z,1020.63
2016-12-27T11:59:24.364Z,1020.67
2016-12-27T12:00:05.091Z,1020.62
2016-12-27T12:00:45.714Z,1020.59
2016-12-27T12:01:26.347Z,1020.61
2016-12-27T12:02:06.989Z,1020.6
2016-12-27T12:02:47.619Z,1020.57
2016-12-27T12:03:28.251Z,1020.56
2016-12-27T12:04:08.880Z,1020.57
2016-12-27T12:04:49.555Z,1020.57
2016-12-27T12:05:30.180Z,1020.55
2016-12-27T12:06:10.823Z,1020.5
2016-12-27T12:06:51.462Z,1020.53
2016-12-27T12:07:32.082Z,1020.52
2016-12-27T12:08:12.826Z,1020.52
2016-12-27T12:08:53.566Z,1020.49
2016-12-27T12:09:34.192Z,1020.52
2016-12-27T12:10:14.823Z,1020.5
2016-12-27T12:10:55.479Z,1020.47
2016-12-27T12:11:36.186Z,1020.44
2016-12-27T12:12:16.742Z,1020.45
2016-12-27T12:12:57.469Z,1020.47
2016-12-27T12:13:38.096Z,1020.43
2016-12-27T12:14:18.723Z,1020.42
2016-12-27T12:14:59.356Z,1020.37
2016-12-27T12:15:39.988Z,1020.41
2016-12-27T12:16:20.615Z,1020.39
2016-12-27T12:17:01.239Z,1020.37
2016-12-27T12:17:41.873Z,1020.34
2016-12-27T12:18:22.520Z,1020.36
2016-12-27T12:19:03.234Z,1020.31
2016-12-27T12:19:43.892Z,1020.32
2016-12-27T12:20:24.526Z,1020.32
2016-12-27T12:21:05.152Z,1020.29
2016-12-27T12:21:45.776Z,1020.33
2016-12-27T12:22:26.411Z,1020.3
2016-12-27T12:23:07.058Z,1020.25
2016-12-27T12:23:47.747Z,1020.28
2016-12-27T12:24:28.379Z,1020.25
2016-12-27T12:25:09.011Z,1020.28
2016-12-27T12:25:49.639Z,1020.23
2016-12-27T12:26:30.260Z,1020.25
2016-12-27T12:27:10.892Z,1020.23
2016-12-27T12:27:51.565Z,1020.19
2016-12-27T12:28:32.222Z,1020.26
2016-12-27T12:29:12.847Z,1020.21
2016-12-27T12:29:53.476Z,1020.21
2016-12-27T12:30:34.102Z,1020.23
2016-12-27T12:31:14.786Z,1020.22
2016-12-27T12:31:55.462Z,1020.22
2016-12-27T12:32:36.111Z,1020.16
2016-12-27T12:33:16.747Z,1020.14
2016-12-27T12:33:57.374Z,1020.17
2016-12-27T12:34:38.010Z,1020.11
2016-12-27T12:35:18.664Z,1020.14
2016-12-27T12:35:59.295Z,1020.16
2016-12-27T12:36:39.924Z,1020.13
2016-12-27T12:37:20.552Z,1020.09
2016-12-27T12:38:01.190Z,1020.09
2016-12-27T12:38:41.824Z,1020.11
2016-12-27T12:39:22.463Z,1020.06
2016-12-27T12:40:03.094Z,1020.11
2016-12-27T12:40:43.718Z,1020.05
2016-12-27T12:41:24.357Z,1020.08
2016-12-27T12:42:04.997Z,1020.07
2016-12-27T12:42:45.627Z,1020.08
2016-12-27T12:43:26.251Z,1019.99
2016-12-27T12:44:06.890Z,1019.97
2016-12-27T12:44:47.519Z,1019.96
2016-12-27T12:45:28.152Z,1019.98
2016-12-27T12:46:08.852Z,1019.94
2016-12-27T12:46:49.481Z,1019.95
2016-12-27T12:47:30.156Z,1019.94
2016-12-27T12:48:10.783Z,1019.95
2016-12-27T12:48:51.427Z,1019.94
2016-12-27T12:49:32.132Z,1019.96
2016-12-27T12:50:12.796Z,1019.99
2016-12-27T12:50:53.424Z,1019.96
2016-12-27T12:51:34.051Z,1019.93
2016-12-27T12:52:14.800Z,1019.95
2016-12-27T12:52:55.433Z,1019.95
2016-12-27T12:53:36.103Z,1019.93
2016-12-27T12:54:16.735Z,1019.91
2016-12-27T12:54:57.381Z,1019.89
2016-12-27T12:55:37.994Z,1019.88
2016-12-27T12:56:18.721Z,1019.85
2016-12-27T12:56:59.384Z,1019.86
2016-12-27T12:57:40.031Z,1019.88
2016-12-27T12:58:20.661Z,1019.84
2016-12-27T12:59:01.353Z,1019.82
2016-12-27T12:59:41.981Z,1019.88
2016-12-27T13:00:22.611Z,1019.86
2016-12-27T13:01:03.241Z,1019.85
2016-12-27T13:01:43.883Z,1019.85
2016-12-27T13:02:24.503Z,1019.82
2016-12-27T13:03:05.128Z,1019.83
2016-12-27T13:03:45.755Z,1019.78
2016-12-27T13:04:26.382Z,1019.76
2016-12-27T13:05:07.014Z,1019.76
2016-12-27T13:05:47.644Z,1019.76
2016-12-27T13:06:28.382Z,1019.75
2016-12-27T13:07:09.017Z,1019.73
2016-12-27T13:07:49.671Z,1019.74
2016-12-27T13:08:30.303Z,1019.7
2016-12-27T13:09:10.931Z,1019.71
2016-12-27T13:09:51.555Z,1019.7
2016-12-27T13:10:32.238Z,1019.68
2016-12-27T13:11:13.016Z,1019.72
2016-12-27T13:11:53.676Z,1019.66
2016-12-27T13:12:34.292Z,1019.7
2016-12-27T13:13:14.919Z,1019.67
2016-12-27T13:13:55.545Z,1019.65
2016-12-27T13:14:36.187Z,1019.68
2016-12-27T13:15:16.830Z,1019.65
2016-12-27T13:15:57.452Z,1019.67
2016-12-27T13:16:38.106Z,1019.67
2016-12-27T13:17:18.740Z,1019.67
2016-12-27T13:17:59.389Z,1019.69
2016-12-27T13:18:40.024Z,1019.67
2016-12-27T13:19:20.656Z,1019.68
2016-12-27T13:20:01.287Z,1019.68
2016-12-27T13:20:41.920Z,1019.7
2016-12-27T13:21:22.560Z,1019.69
2016-12-27T13:22:03.189Z,1019.68
2016-12-27T13:22:43.913Z,1019.64
2016-12-27T13:23:24.691Z,1019.64
2016-12-27T13:24:05.320Z,1019.64
2016-12-27T13:24:45.947Z,1019.62
2016-12-27T13:25:26.581Z,1019.62
2016-12-27T13:26:07.221Z,1019.61
2016-12-27T13:26:47.858Z,1019.59
2016-12-27T13:27:28.492Z,1019.61
2016-12-27T13:28:09.115Z,1019.64
2016-12-27T13:28:49.743Z,1019.56
2016-12-27T13:29:30.392Z,1019.59
2016-12-27T13:30:11.075Z,1019.59
2016-12-27T13:30:51.712Z,1019.59
2016-12-27T13:31:32.362Z,1019.6
2016-12-27T13:32:12.987Z,1019.59
2016-12-27T13:32:53.619Z,1019.54
2016-12-27T13:33:34.248Z,1019.6
2016-12-27T13:34:15.604Z,1019.59
2016-12-27T13:34:56.233Z,1019.6
2016-12-27T13:35:36.870Z,1019.57
2016-12-27T13:36:17.502Z,1019.59
2016-12-27T13:36:58.203Z,1019.56
2016-12-27T13:37:38.892Z,1019.54
2016-12-27T13:38:19.512Z,1019.51
2016-12-27T13:39:00.161Z,1019.48
2016-12-27T13:39:40.784Z,1019.49
2016-12-27T13:40:21.403Z,1019.47
2016-12-27T13:41:02.034Z,1019.48
2016-12-27T13:41:42.662Z,1019.5
2016-12-27T13:42:23.291Z,1019.44
2016-12-27T13:43:03.939Z,1019.46
2016-12-27T13:43:44.578Z,1019.47
2016-12-27T13:44:25.215Z,1019.44
2016-12-27T13:45:05.920Z,1019.47
2016-12-27T13:45:46.660Z,1019.45
2016-12-27T13:46:27.305Z,1019.47
2016-12-27T13:47:07.918Z,1019.46
2016-12-27T13:47:48.551Z,1019.43
2016-12-27T13:48:29.184Z,1019.45
2016-12-27T13:49:09.857Z,1019.42
2016-12-27T13:49:50.483Z,1019.46
2016-12-27T13:50:31.117Z,1019.43
2016-12-27T13:51:11.771Z,1019.43
2016-12-27T13:51:52.401Z,1019.41
2016-12-27T13:52:33.031Z,1019.4
2016-12-27T13:53:13.662Z,1019.41
2016-12-27T13:53:54.329Z,1019.4
2016-12-27T13:54:34.953Z,1019.4
2016-12-27T13:55:15.585Z,1019.4
2016-12-27T13:55:56.236Z,1019.4
2016-12-27T13:56:36.859Z,1019.39
2016-12-27T13:57:17.497Z,1019.44
2016-12-27T13:57:58.220Z,1019.41
2016-12-27T13:58:39.635Z,1019.39
2016-12-27T13:59:20.518Z,1019.34
2016-12-27T14:00:01.148Z,1019.37
2016-12-27T14:00:41.861Z,1019.33
2016-12-27T14:01:22.499Z,1019.33
2016-12-27T14:02:03.133Z,1019.32
2016-12-27T14:02:43.778Z,1019.31
2016-12-27T14:03:24.409Z,1019.29
2016-12-27T14:04:05.035Z,1019.3
2016-12-27T14:04:45.665Z,1019.24
2016-12-27T14:05:26.293Z,1019.25
2016-12-27T14:06:06.928Z,1019.23
2016-12-27T14:06:47.560Z,1019.24
2016-12-27T14:07:28.207Z,1019.25
2016-12-27T14:08:08.845Z,1019.2
2016-12-27T14:08:49.469Z,1019.23
2016-12-27T14:09:30.091Z,1019.24
2016-12-27T14:10:10.779Z,1019.22
2016-12-27T14:10:51.453Z,1019.26
2016-12-27T14:11:32.087Z,1019.23
2016-12-27T14:12:12.810Z,1019.24
2016-12-27T14:12:53.460Z,1019.25
2016-12-27T14:13:34.111Z,1019.23
2016-12-27T14:14:14.792Z,1019.23
2016-12-27T14:14:55.472Z,1019.24
2016-12-27T14:15:36.092Z,1019.26
2016-12-27T14:16:16.782Z,1019.23
2016-12-27T14:16:57.406Z,1019.21
2016-12-27T14:17:38.145Z,1019.2
2016-12-27T14:18:18.750Z,1019.17
2016-12-27T14:18:59.421Z,1019.18
2016-12-27T14:19:40.143Z,1019.15
2016-12-27T14:20:20.778Z,1019.19
2016-12-27T14:21:01.405Z,1019.19
2016-12-27T14:21:42.076Z,1019.19
2016-12-27T14:22:22.707Z,1019.19
2016-12-27T14:23:03.345Z,1019.15
2016-12-27T14:23:44.623Z,1019.18
2016-12-27T14:24:25.257Z,1019.15
2016-12-27T14:25:05.888Z,1019.16
2016-12-27T14:25:46.512Z,1019.16
2016-12-27T14:26:27.151Z,1019.14
2016-12-27T14:27:07.790Z,1019.16
2016-12-27T14:27:48.424Z,1019.13
2016-12-27T14:28:29.052Z,1019.11
2016-12-27T14:29:09.718Z,1019.1
2016-12-27T14:29:50.344Z,1019.11
2016-12-27T14:30:31.083Z,1019.09
2016-12-27T14:31:11.712Z,1019.09
2016-12-27T14:31:52.338Z,1019.07
2016-12-27T14:32:32.979Z,1019.06
2016-12-27T14:33:13.613Z,1019.05
2016-12-27T14:33:54.241Z,1019.09
2016-12-27T14:34:34.872Z,1019.07
2016-12-27T14:35:15.524Z,1019.05
2016-12-27T14:35:56.151Z,1019.06
2016-12-27T14:36:36.790Z,1019.04
2016-12-27T14:37:17.416Z,1019.11
2016-12-27T14:37:58.036Z,1019.12
2016-12-27T14:38:38.663Z,1019.15
2016-12-27T14:39:19.296Z,1019.1
2016-12-27T14:39:59.923Z,1019.1
2016-12-27T14:40:40.543Z,1019.14
2016-12-27T14:41:21.169Z,1019.11
2016-12-27T14:42:01.814Z,1019.09
2016-12-27T14:42:42.503Z,1019.1
2016-12-27T14:43:23.137Z,1019.06
2016-12-27T14:44:03.757Z,1019.06
2016-12-27T14:44:44.392Z,1019.05
2016-12-27T14:45:25.064Z,1019.03
2016-12-27T14:46:05.767Z,1019.04
2016-12-27T14:46:46.390Z,1019.05
2016-12-27T14:47:27.018Z,1019.04
2016-12-27T14:48:07.651Z,1019.03
2016-12-27T14:48:48.371Z,1019.03
2016-12-27T14:49:29.000Z,1019.02
2016-12-27T14:50:09.656Z,1019.05
2016-12-27T14:50:50.300Z,1019.04
2016-12-27T14:51:30.930Z,1019.01
2016-12-27T14:52:11.581Z,1019.02
2016-12-27T14:52:52.235Z,1018.98
2016-12-27T14:53:32.878Z,1018.98
2016-12-27T14:54:13.523Z,1018.98
2016-12-27T14:54:54.241Z,1019
2016-12-27T14:55:34.896Z,1019
2016-12-27T14:56:15.526Z,1019
2016-12-27T14:56:56.202Z,1018.99
2016-12-27T14:57:36.833Z,1018.97
2016-12-27T14:58:17.484Z,1019
2016-12-27T14:58:58.172Z,1018.97
2016-12-27T14:59:38.799Z,1018.97
2016-12-27T15:00:19.428Z,1018.98
2016-12-27T15:01:00.061Z,1019
2016-12-27T15:01:40.713Z,1018.99
2016-12-27T15:02:21.354Z,1018.96
2016-12-27T15:03:01.984Z,1018.98
2016-12-27T15:03:42.621Z,1018.99
2016-12-27T15:04:23.246Z,1019.01
2016-12-27T15:05:03.888Z,1018.99
2016-12-27T15:05:44.509Z,1018.97
2016-12-27T15:06:25.241Z,1018.98
2016-12-27T15:07:05.892Z,1018.99
2016-12-27T15:07:46.650Z,1018.98
2016-12-27T15:08:27.337Z,1018.97
2016-12-27T15:09:07.974Z,1018.96
2016-12-27T15:09:48.627Z,1018.98
2016-12-27T15:10:29.273Z,1018.96
2016-12-27T15:11:09.896Z,1018.96
2016-12-27T15:11:50.528Z,1018.98
2016-12-27T15:12:31.201Z,1018.98
2016-12-27T15:13:11.835Z,1018.96
2016-12-27T15:13:52.472Z,1018.98
2016-12-27T15:14:33.198Z,1018.95
2016-12-27T15:15:13.824Z,1019.01
2016-12-27T15:15:54.468Z,1019
2016-12-27T15:16:35.095Z,1019.02
2016-12-27T15:17:15.726Z,1019.02
2016-12-27T15:17:56.352Z,1019.01
2016-12-27T15:18:37.056Z,1019.02
2016-12-27T15:19:17.699Z,1019.05
2016-12-27T15:19:58.328Z,1019.01
2016-12-27T15:20:38.965Z,1019.02
2016-12-27T15:21:19.630Z,1019.02
2016-12-27T15:22:00.248Z,1019.04
2016-12-27T15:22:40.883Z,1019.03
2016-12-27T15:23:21.514Z,1019.04
2016-12-27T15:24:02.148Z,1019.02
2016-12-27T15:24:42.779Z,1019.05
2016-12-27T15:25:23.558Z,1019.06
2016-12-27T15:26:04.187Z,1019.02
2016-12-27T15:26:44.820Z,1019.04
2016-12-27T15:27:25.445Z,1019.02
2016-12-27T15:28:06.158Z,1019.07
2016-12-27T15:28:46.856Z,1019.07
2016-12-27T15:29:27.496Z,1019.08
2016-12-27T15:30:08.126Z,1019.09
2016-12-27T15:30:48.810Z,1019.1
2016-12-27T15:31:29.513Z,1019.12
2016-12-27T15:32:10.152Z,1019.1
2016-12-27T15:32:50.781Z,1019.11
2016-12-27T15:33:31.633Z,1019.08
2016-12-27T15:34:12.252Z,1019.12
2016-12-27T15:34:52.880Z,1019.18
2016-12-27T15:35:33.580Z,1019.16
2016-12-27T15:36:14.217Z,1019.12
2016-12-27T15:36:54.879Z,1019.18
2016-12-27T15:37:35.511Z,1019.17
2016-12-27T15:38:16.151Z,1019.14
2016-12-27T15:38:56.782Z,1019.17
2016-12-27T15:39:37.478Z,1019.2
2016-12-27T15:40:18.105Z,1019.17
2016-12-27T15:40:58.730Z,1019.12
2016-12-27T15:41:39.369Z,1019.16
2016-12-27T15:42:20.020Z,1019.14
2016-12-27T15:43:00.691Z,1019.17
2016-12-27T15:43:41.274Z,1019.13
2016-12-27T15:44:21.971Z,1019.13
2016-12-27T15:45:02.600Z,1019.15
2016-12-27T15:45:43.272Z,1019.18
2016-12-27T15:46:23.911Z,1019.15
2016-12-27T15:47:04.620Z,1019.15
2016-12-27T15:47:45.259Z,1019.15
2016-12-27T15:48:25.889Z,1019.15
2016-12-27T15:49:06.521Z,1019.14
2016-12-27T15:49:47.152Z,1019.16
2016-12-27T15:50:27.792Z,1019.14
2016-12-27T15:51:08.507Z,1019.16
2016-12-27T15:51:49.134Z,1019.14
2016-12-27T15:52:29.764Z,1019.14
2016-12-27T15:53:10.400Z,1019.16
2016-12-27T15:53:51.027Z,1019.13
2016-12-27T15:54:31.663Z,1019.13
2016-12-27T15:55:12.299Z,1019.16
2016-12-27T15:55:52.943Z,1019.14
2016-12-27T15:56:33.760Z,1019.16
2016-12-27T15:57:14.390Z,1019.11
2016-12-27T15:57:55.034Z,1019.12
2016-12-27T15:58:35.666Z,1019.16
2016-12-27T15:59:16.306Z,1019.13
2016-12-27T15:59:56.947Z,1019.11
2016-12-27T16:00:37.587Z,1019.17
2016-12-27T16:01:18.224Z,1019.12
2016-12-27T16:01:58.855Z,1019.15
2016-12-27T16:02:39.478Z,1019.11
2016-12-27T16:03:20.117Z,1019.12
2016-12-27T16:04:00.746Z,1019.13
2016-12-27T16:04:41.377Z,1019.14
2016-12-27T16:05:22.012Z,1019.15
2016-12-27T16:06:02.645Z,1019.19
2016-12-27T16:06:43.294Z,1019.18
2016-12-27T16:07:23.930Z,1019.17
2016-12-27T16:08:04.572Z,1019.18
2016-12-27T16:08:45.215Z,1019.2
2016-12-27T16:09:25.873Z,1019.21
2016-12-27T16:10:06.503Z,1019.22
2016-12-27T16:10:47.134Z,1019.22
2016-12-27T16:11:27.870Z,1019.24
2016-12-27T16:12:08.507Z,1019.21
2016-12-27T16:12:49.143Z,1019.23
2016-12-27T16:13:29.768Z,1019.27
2016-12-27T16:14:10.457Z,1019.26
2016-12-27T16:14:51.101Z,1019.26
2016-12-27T16:15:31.766Z,1019.25
2016-12-27T16:16:12.967Z,1019.26
2016-12-27T16:16:53.593Z,1019.25
2016-12-27T16:17:34.224Z,1019.26
2016-12-27T16:18:14.845Z,1019.26
2016-12-27T16:18:55.482Z,1019.29
2016-12-27T16:19:36.137Z,1019.27
2016-12-27T16:20:16.792Z,1019.28
2016-12-27T16:20:57.462Z,1019.27
2016-12-27T16:21:38.101Z,1019.3
2016-12-27T16:22:18.741Z,1019.29
2016-12-27T16:22:59.395Z,1019.27
2016-12-27T16:23:40.054Z,1019.29
2016-12-27T16:24:20.699Z,1019.31
2016-12-27T16:25:01.325Z,1019.28
2016-12-27T16:25:41.997Z,1019.27
2016-12-27T16:26:22.587Z,1019.3
2016-12-27T16:27:03.336Z,1019.32
2016-12-27T16:27:43.960Z,1019.31
2016-12-27T16:28:24.597Z,1019.33
2016-12-27T16:29:05.237Z,1019.34
2016-12-27T16:29:45.938Z,1019.32
2016-12-27T16:30:26.573Z,1019.32
2016-12-27T16:31:07.299Z,1019.34
2016-12-27T16:31:47.954Z,1019.34
2016-12-27T16:32:28.573Z,1019.33
2016-12-27T16:33:09.347Z,1019.35
2016-12-27T16:33:49.993Z,1019.33
2016-12-27T16:34:30.773Z,1019.35
2016-12-27T16:35:11.408Z,1019.31
2016-12-27T16:35:52.585Z,1019.33
2016-12-27T16:36:33.223Z,1019.31
2016-12-27T16:37:13.892Z,1019.31
2016-12-27T16:37:54.534Z,1019.33
2016-12-27T16:38:35.163Z,1019.33
2016-12-27T16:39:15.841Z,1019.36
2016-12-27T16:39:56.471Z,1019.34
2016-12-27T16:40:37.107Z,1019.35
2016-12-27T16:41:17.797Z,1019.34
2016-12-27T16:41:58.443Z,1019.35
2016-12-27T16:42:39.074Z,1019.37
2016-12-27T16:43:19.699Z,1019.33
2016-12-27T16:44:00.349Z,1019.36
2016-12-27T16:44:40.982Z,1019.35
2016-12-27T16:45:21.618Z,1019.35
2016-12-27T16:46:02.245Z,1019.36
2016-12-27T16:46:42.878Z,1019.38
2016-12-27T16:47:23.503Z,1019.38
2016-12-27T16:48:04.184Z,1019.36
2016-12-27T16:48:44.823Z,1019.36
2016-12-27T16:49:25.451Z,1019.35
2016-12-27T16:50:06.086Z,1019.37
2016-12-27T16:50:46.709Z,1019.39
2016-12-27T16:51:27.348Z,1019.39
2016-12-27T16:52:07.982Z,1019.4
2016-12-27T16:52:48.625Z,1019.39
2016-12-27T16:53:29.454Z,1019.38
2016-12-27T16:54:10.147Z,1019.37
2016-12-27T16:54:50.773Z,1019.4
2016-12-27T16:55:31.469Z,1019.38
2016-12-27T16:56:12.105Z,1019.37
2016-12-27T16:56:52.803Z,1019.41
2016-12-27T16:57:33.457Z,1019.45
2016-12-27T16:58:14.145Z,1019.44
2016-12-27T16:58:54.766Z,1019.42
2016-12-27T16:59:35.394Z,1019.44
2016-12-27T17:00:16.038Z,1019.44
2016-12-27T17:00:56.672Z,1019.41
2016-12-27T17:01:37.299Z,1019.45
2016-12-27T17:02:17.928Z,1019.44
2016-12-27T17:02:58.643Z,1019.46
2016-12-27T17:03:39.269Z,1019.47
2016-12-27T17:04:19.958Z,1019.47
2016-12-27T17:05:00.588Z,1019.47
2016-12-27T17:05:41.224Z,1019.5
2016-12-27T17:06:21.865Z,1019.5
2016-12-27T17:07:02.502Z,1019.54
2016-12-27T17:07:43.144Z,1019.51
2016-12-27T17:08:23.782Z,1019.52
2016-12-27T17:09:04.504Z,1019.54
2016-12-27T17:09:45.131Z,1019.53
2016-12-27T17:10:25.758Z,1019.55
2016-12-27T17:11:06.393Z,1019.56
2016-12-27T17:11:47.028Z,1019.52
2016-12-27T17:12:27.677Z,1019.52
2016-12-27T17:13:08.415Z,1019.53
2016-12-27T17:13:49.165Z,1019.53
2016-12-27T17:14:29.806Z,1019.5
2016-12-27T17:15:10.596Z,1019.53
2016-12-27T17:15:51.231Z,1019.51
2016-12-27T17:16:31.866Z,1019.53
2016-12-27T17:17:12.577Z,1019.6
2016-12-27T17:17:53.275Z,1019.56
2016-12-27T17:18:33.919Z,1019.52
2016-12-27T17:19:14.550Z,1019.55
2016-12-27T17:19:55.203Z,1019.51
2016-12-27T17:20:35.939Z,1019.52
2016-12-27T17:21:16.562Z,1019.52
2016-12-27T17:21:57.215Z,1019.53
2016-12-27T17:22:37.847Z,1019.51
2016-12-27T17:23:18.471Z,1019.51
2016-12-27T17:23:59.093Z,1019.55
2016-12-27T17:24:39.724Z,1019.54
2016-12-27T17:25:20.355Z,1019.53
2016-12-27T17:26:01.030Z,1019.56
2016-12-27T17:26:41.675Z,1019.56
2016-12-27T17:27:22.308Z,1019.55
2016-12-27T17:28:02.933Z,1019.56
2016-12-27T17:28:43.570Z,1019.55
2016-12-27T17:29:24.209Z,1019.56
2016-12-27T17:30:04.899Z,1019.55
2016-12-27T17:30:45.610Z,1019.57
2016-12-27T17:31:26.241Z,1019.59
2016-12-27T17:32:06.868Z,1019.57
2016-12-27T17:32:47.532Z,1019.58
2016-12-27T17:33:28.161Z,1019.57
2016-12-27T17:34:08.862Z,1019.54
2016-12-27T17:34:49.530Z,1019.53
2016-12-27T17:35:30.155Z,1019.55
2016-12-27T17:36:10.784Z,1019.55
2016-12-27T17:36:51.418Z,1019.54
2016-12-27T17:37:32.048Z,1019.54
2016-12-27T17:38:12.740Z,1019.58
2016-12-27T17:38:53.376Z,1019.55
2016-12-27T17:39:34.024Z,1019.59
2016-12-27T17:40:14.659Z,1019.58
2016-12-27T17:40:55.295Z,1019.59
2016-12-27T17:41:36.012Z,1019.6
2016-12-27T17:42:16.655Z,1019.62
2016-12-27T17:42:57.407Z,1019.59
2016-12-27T17:43:38.112Z,1019.6
2016-12-27T17:44:18.744Z,1019.59
2016-12-27T17:44:59.376Z,1019.59
2016-12-27T17:45:40.032Z,1019.6
2016-12-27T17:46:20.645Z,1019.62
2016-12-27T17:47:01.301Z,1019.65
2016-12-27T17:47:41.932Z,1019.61
2016-12-27T17:48:22.570Z,1019.6
2016-12-27T17:49:03.200Z,1019.6
2016-12-27T17:49:43.837Z,1019.63
2016-12-27T17:50:24.460Z,1019.63
2016-12-27T17:51:05.088Z,1019.63
2016-12-27T17:51:45.729Z,1019.61
2016-12-27T17:52:26.369Z,1019.62
2016-12-27T17:53:07.000Z,1019.61
2016-12-27T17:53:47.626Z,1019.63
2016-12-27T17:54:28.266Z,1019.6
2016-12-27T17:55:08.902Z,1019.61
2016-12-27T17:55:49.545Z,1019.63
2016-12-27T17:56:30.175Z,1019.59
2016-12-27T17:57:10.820Z,1019.59
2016-12-27T17:57:51.441Z,1019.61
2016-12-27T17:58:32.067Z,1019.61
2016-12-27T17:59:12.709Z,1019.6
2016-12-27T17:59:53.337Z,1019.61
2016-12-27T18:00:33.978Z,1019.6
2016-12-27T18:01:14.603Z,1019.64
2016-12-27T18:01:55.235Z,1019.61
2016-12-27T18:02:35.874Z,1019.63
2016-12-27T18:03:16.575Z,1019.67
2016-12-27T18:03:57.243Z,1019.66
2016-12-27T18:04:37.872Z,1019.62
2016-12-27T18:05:18.500Z,1019.66
2016-12-27T18:05:59.135Z,1019.66
2016-12-27T18:06:39.776Z,1019.67
2016-12-27T18:07:20.469Z,1019.66
2016-12-27T18:08:01.143Z,1019.68
2016-12-27T18:08:41.776Z,1019.66
2016-12-27T18:09:22.459Z,1019.7
2016-12-27T18:10:03.092Z,1019.69
2016-12-27T18:10:43.740Z,1019.71
2016-12-27T18:11:24.358Z,1019.68
2016-12-27T18:12:05.044Z,1019.72
2016-12-27T18:12:45.685Z,1019.71
2016-12-27T18:13:26.364Z,1019.7
2016-12-27T18:14:06.994Z,1019.69
2016-12-27T18:14:47.697Z,1019.74
2016-12-27T18:15:28.351Z,1019.74
2016-12-27T18:16:09.080Z,1019.72
2016-12-27T18:16:49.710Z,1019.72
2016-12-27T18:17:30.338Z,1019.7
2016-12-27T18:18:10.971Z,1019.7
2016-12-27T18:18:51.696Z,1019.7
2016-12-27T18:19:32.339Z,1019.72
2016-12-27T18:20:12.974Z,1019.72
2016-12-27T18:20:53.667Z,1019.71
2016-12-27T18:21:34.321Z,1019.69
2016-12-27T18:22:14.935Z,1019.72
2016-12-27T18:22:55.648Z,1019.73
2016-12-27T18:23:36.280Z,1019.72
2016-12-27T18:24:16.911Z,1019.73
2016-12-27T18:24:57.555Z,1019.74
2016-12-27T18:25:38.179Z,1019.75
2016-12-27T18:26:18.808Z,1019.77
2016-12-27T18:26:59.442Z,1019.75
2016-12-27T18:27:40.070Z,1019.75
2016-12-27T18:28:20.726Z,1019.77
2016-12-27T18:29:01.361Z,1019.8
2016-12-27T18:29:41.994Z,1019.84
2016-12-27T18:30:22.626Z,1019.77
2016-12-27T18:31:03.381Z,1019.81
2016-12-27T18:31:44.093Z,1019.85
2016-12-27T18:32:24.724Z,1019.84
2016-12-27T18:33:05.429Z,1019.84
2016-12-27T18:33:46.120Z,1019.84
2016-12-27T18:34:26.765Z,1019.86
2016-12-27T18:35:07.405Z,1019.86
2016-12-27T18:35:48.197Z,1019.86
2016-12-27T18:36:28.833Z,1019.86
2016-12-27T18:37:09.450Z,1019.86
2016-12-27T18:37:50.117Z,1019.87
2016-12-27T18:38:30.741Z,1019.86
2016-12-27T18:39:11.378Z,1019.81
2016-12-27T18:39:52.079Z,1019.86
2016-12-27T18:40:32.716Z,1019.83
2016-12-27T18:41:13.434Z,1019.84
2016-12-27T18:41:54.062Z,1019.83
2016-12-27T18:42:34.709Z,1019.85
2016-12-27T18:43:15.331Z,1019.87
2016-12-27T18:43:55.975Z,1019.86
2016-12-27T18:44:36.601Z,1019.88
2016-12-27T18:45:17.239Z,1019.92
2016-12-27T18:45:57.886Z,1019.93
2016-12-27T18:46:38.630Z,1019.9
2016-12-27T18:47:19.289Z,1019.88
2016-12-27T18:47:59.901Z,1019.86
2016-12-27T18:48:40.532Z,1019.86
2016-12-27T18:49:21.193Z,1019.88
2016-12-27T18:50:01.898Z,1019.91
2016-12-27T18:50:42.524Z,1019.89
2016-12-27T18:51:23.154Z,1019.88
2016-12-27T18:52:03.783Z,1019.91
2016-12-27T18:52:44.413Z,1019.89
2016-12-27T18:53:25.075Z,1019.91
2016-12-27T18:54:05.703Z,1019.92
2016-12-27T18:54:46.340Z,1019.91
2016-12-27T18:55:27.052Z,1019.94
2016-12-27T18:56:07.701Z,1019.93
2016-12-27T18:56:48.442Z,1019.92
2016-12-27T18:57:29.114Z,1019.92
2016-12-27T18:58:09.745Z,1020
2016-12-27T18:58:50.400Z,1019.94
2016-12-27T18:59:31.078Z,1020.01
2016-12-27T19:00:11.712Z,1020.03
2016-12-27T19:00:52.425Z,1020.03
2016-12-27T19:01:33.146Z,1019.98
2016-12-27T19:02:13.891Z,1019.95
2016-12-27T19:02:54.526Z,1019.96
2016-12-27T19:03:35.162Z,1019.99
2016-12-27T19:04:15.797Z,1019.97
2016-12-27T19:04:56.423Z,1020
2016-12-27T19:05:37.056Z,1019.99
2016-12-27T19:06:17.700Z,1019.99
2016-12-27T19:06:58.330Z,1020
2016-12-27T19:07:39.041Z,1020
2016-12-27T19:08:19.733Z,1020
2016-12-27T19:09:00.406Z,1020.01
2016-12-27T19:09:41.069Z,1020.02
2016-12-27T19:10:21.727Z,1020.03
2016-12-27T19:11:02.363Z,1020.08
2016-12-27T19:11:42.998Z,1020.09
2016-12-27T19:12:23.658Z,1020.07
2016-12-27T19:13:04.358Z,1020.06
2016-12-27T19:13:45.003Z,1020.05
2016-12-27T19:14:25.664Z,1020.08
2016-12-27T19:15:06.292Z,1020.06
2016-12-27T19:15:46.927Z,1020.08
2016-12-27T19:16:27.697Z,1020.05
2016-12-27T19:17:08.392Z,1020.11
2016-12-27T19:17:49.014Z,1020.12
2016-12-27T19:18:29.760Z,1020.1
2016-12-27T19:19:10.419Z,1020.12
2016-12-27T19:19:51.132Z,1020.12
2016-12-27T19:20:31.762Z,1020.14
2016-12-27T19:21:12.498Z,1020.12
2016-12-27T19:21:53.196Z,1020.12
2016-12-27T19:22:33.837Z,1020.11
2016-12-27T19:23:14.475Z,1020.12
2016-12-27T19:23:55.142Z,1020.12
2016-12-27T19:24:35.786Z,1020.13
2016-12-27T19:25:16.427Z,1020.11
2016-12-27T19:25:57.065Z,1020.12
2016-12-27T19:26:37.698Z,1020.1
2016-12-27T19:27:18.328Z,1020.1
2016-12-27T19:27:59.043Z,1020.11
2016-12-27T19:28:39.674Z,1020.1
2016-12-27T19:29:20.308Z,1020.1
2016-12-27T19:30:00.953Z,1020.1
2016-12-27T19:30:41.604Z,1020.09
2016-12-27T19:31:22.233Z,1020.1
2016-12-27T19:32:02.877Z,1020.09
2016-12-27T19:32:43.513Z,1020.12
2016-12-27T19:33:24.138Z,1020.12
2016-12-27T19:34:04.768Z,1020.11
2016-12-27T19:34:45.390Z,1020.11
2016-12-27T19:35:26.088Z,1020.13
2016-12-27T19:36:06.788Z,1020.12
2016-12-27T19:36:47.412Z,1020.11
2016-12-27T19:37:28.049Z,1020.13
2016-12-27T19:38:08.693Z,1020.12
2016-12-27T19:38:49.342Z,1020.18
2016-12-27T19:39:29.982Z,1020.15
2016-12-27T19:40:10.612Z,1020.16
2016-12-27T19:40:51.258Z,1020.13
2016-12-27T19:41:31.898Z,1020.13
2016-12-27T19:42:12.671Z,1020.16
2016-12-27T19:42:53.305Z,1020.18
2016-12-27T19:43:33.942Z,1020.18
2016-12-27T19:44:14.633Z,1020.14
2016-12-27T19:44:55.262Z,1020.14
2016-12-27T19:45:35.899Z,1020.12
2016-12-27T19:46:16.584Z,1020.16
2016-12-27T19:46:57.339Z,1020.15
2016-12-27T19:47:37.983Z,1020.16
2016-12-27T19:48:18.628Z,1020.15
2016-12-27T19:48:59.326Z,1020.13
2016-12-27T19:49:39.994Z,1020.14
2016-12-27T19:50:20.625Z,1020.13
2016-12-27T19:51:01.281Z,1020.15
2016-12-27T19:51:41.912Z,1020.12
2016-12-27T19:52:22.554Z,1020.11
2016-12-27T19:53:03.193Z,1020.1
2016-12-27T19:53:43.820Z,1020.14
2016-12-27T19:54:24.453Z,1020.15
2016-12-27T19:55:05.091Z,1020.11
2016-12-27T19:55:45.728Z,1020.17
2016-12-27T19:56:26.362Z,1020.14
2016-12-27T19:57:06.998Z,1020.16
2016-12-27T19:57:47.631Z,1020.19